Redwood Falls, Minnesota
Current Conditions -  °F | °C
As of 12:53 PM on Saturday 25 Oct 2014 (Local Time) from KRWF Reporting Station
Clear Clear  
Wind Chill: 62°   Ceiling: Unl
Heat Index: 62°   Visibility: 10mi
Dew Point: 32°   Wind: 14mph
Humidity: 32%   Direction: 300°WNW
Pressure: 30.12"   Gusts: 21mph
Location:  44.54°N, 95.12°W
Report Text: KRWF 251753Z AUTO 30012G18KT 10SM CLR 17/00 A3012 RMK AO2 SLP200 T01670000 10172 20083 50004
Loading
Personal Weather Stations






























Interactive Weather Map
Tropical Storm Tracking
New forecast layout! Learn more

10-Day Weather Forecast

Advertisements
Track Severe Weather on mobile